KLM27J EHAM-EGBB
Flight info
| Callsign | KLM27J |
|---|---|
| Flight time | 1h 4m |
| Altitude | 36000 |
| Route | IDRID L980 LAM L610 HEMEL |
| Aircraft | B739/M-SDE2E3FGIJ1RWY/LB1 |
Departure
| Time | 2026-04-29 00:01 |
|---|---|
| Airport | Amsterdam Airport Schiphol (EHAM) |
Arrival
| Time | 2026-04-29 01:05 |
|---|---|
| Airport | Birmingham Airport (EGBB) |
| Time | Latitude | Longitude | Altitude | Speed | Heading |
|---|---|---|---|---|---|
| 2026-04-28 23:15 | 52.30667 | 4.76591 | -3 ft | 0 kts | 248° |
| 2026-04-28 23:46 | 52.30675 | 4.76626 | -3 ft | 4 kts | 256° |
| 2026-04-28 23:46 | 52.30680 | 4.76669 | -3 ft | 4 kts | 269° |
| 2026-04-28 23:46 | 52.30677 | 4.76711 | -3 ft | 4 kts | 290° |
| 2026-04-28 23:46 | 52.30666 | 4.76742 | -3 ft | 1 kts | 323° |
| 2026-04-28 23:47 | 52.30666 | 4.76743 | -3 ft | 0 kts | 323° |
| 2026-04-28 23:49 | 52.30666 | 4.76742 | -3 ft | 0 kts | 323° |
| 2026-04-28 23:50 | 52.30667 | 4.76741 | -3 ft | 0 kts | 323° |
| 2026-04-28 23:50 | 52.30667 | 4.76740 | -3 ft | 1 kts | 323° |
| 2026-04-28 23:50 | 52.30686 | 4.76732 | -3 ft | 4 kts | 12° |
| 2026-04-28 23:51 | 52.30709 | 4.76797 | -3 ft | 9 kts | 110° |
| 2026-04-28 23:51 | 52.30662 | 4.76895 | -3 ft | 12 kts | 112° |
| 2026-04-28 23:51 | 52.30647 | 4.77031 | -3 ft | 12 kts | 96° |
| 2026-04-28 23:51 | 52.30642 | 4.77162 | -3 ft | 12 kts | 93° |
| 2026-04-28 23:52 | 52.30638 | 4.77290 | -3 ft | 11 kts | 92° |
| 2026-04-28 23:52 | 52.30641 | 4.77416 | -3 ft | 11 kts | 86° |
| 2026-04-28 23:52 | 52.30651 | 4.77536 | -3 ft | 11 kts | 68° |
| 2026-04-28 23:52 | 52.30710 | 4.77592 | -3 ft | 10 kts | 5° |
| 2026-04-28 23:53 | 52.30785 | 4.77600 | -3 ft | 12 kts | 3° |
| 2026-04-28 23:53 | 52.30888 | 4.77609 | -3 ft | 18 kts | 3° |
| 2026-04-28 23:53 | 52.31013 | 4.77619 | -3 ft | 18 kts | 4° |
| 2026-04-28 23:53 | 52.31133 | 4.77632 | -3 ft | 17 kts | 3° |
| 2026-04-28 23:54 | 52.31250 | 4.77642 | -3 ft | 17 kts | 4° |
| 2026-04-28 23:54 | 52.31363 | 4.77652 | -3 ft | 16 kts | 2° |
| 2026-04-28 23:54 | 52.31469 | 4.77619 | -3 ft | 15 kts | 330° |
| 2026-04-28 23:54 | 52.31544 | 4.77504 | -3 ft | 15 kts | 309° |
| 2026-04-28 23:55 | 52.31578 | 4.77355 | -4 ft | 14 kts | 269° |
| 2026-04-28 23:55 | 52.31573 | 4.77192 | -4 ft | 15 kts | 266° |
| 2026-04-28 23:55 | 52.31566 | 4.76986 | -4 ft | 20 kts | 266° |
| 2026-04-28 23:55 | 52.31557 | 4.76752 | -4 ft | 20 kts | 266° |
| 2026-04-28 23:56 | 52.31550 | 4.76526 | -3 ft | 20 kts | 267° |
| 2026-04-28 23:56 | 52.31543 | 4.76306 | -3 ft | 19 kts | 266° |
| 2026-04-28 23:56 | 52.31536 | 4.76094 | -3 ft | 18 kts | 267° |
| 2026-04-28 23:56 | 52.31528 | 4.75888 | -3 ft | 18 kts | 266° |
| 2026-04-28 23:57 | 52.31522 | 4.75690 | -4 ft | 17 kts | 267° |
| 2026-04-28 23:57 | 52.31515 | 4.75499 | -4 ft | 17 kts | 266° |
| 2026-04-28 23:57 | 52.31508 | 4.75315 | -4 ft | 16 kts | 267° |
| 2026-04-28 23:57 | 52.31502 | 4.75139 | -4 ft | 15 kts | 266° |
| 2026-04-28 23:58 | 52.31495 | 4.74969 | -3 ft | 15 kts | 266° |
| 2026-04-28 23:58 | 52.31490 | 4.74807 | -3 ft | 14 kts | 266° |
| 2026-04-28 23:58 | 52.31520 | 4.74671 | -3 ft | 13 kts | 336° |
| 2026-04-28 23:58 | 52.31610 | 4.74661 | -1 ft | 13 kts | 10° |
| 2026-04-28 23:59 | 52.31668 | 4.74759 | -1 ft | 13 kts | 79° |
| 2026-04-28 23:59 | 52.31676 | 4.74969 | -7 ft | 36 kts | 87° |
| 2026-04-28 23:59 | 52.31680 | 4.75078 | -7 ft | 1 kts | 86° |
| 2026-04-28 23:59 | 52.31680 | 4.75089 | -7 ft | 0 kts | 86° |
| 2026-04-29 00:00 | 52.31680 | 4.75090 | -7 ft | 0 kts | 86° |
| 2026-04-29 00:00 | 52.31686 | 4.75251 | -5 ft | 44 kts | 86° |
| 2026-04-29 00:00 | 52.31718 | 4.76126 | -2 ft | 107 kts | 88° |
| 2026-04-29 00:00 | 52.31778 | 4.77600 | 55 ft | 145 kts | 84° |
| 2026-04-29 00:01 | 52.31826 | 4.79273 | 586 ft | 149 kts | 85° |
| 2026-04-29 00:01 | 52.31738 | 4.80999 | 1148 ft | 151 kts | 110° |
| 2026-04-29 00:01 | 52.31053 | 4.82282 | 1761 ft | 157 kts | 140° |
| 2026-04-29 00:01 | 52.29954 | 4.82733 | 2184 ft | 176 kts | 175° |
| 2026-04-29 00:02 | 52.28757 | 4.82036 | 2641 ft | 185 kts | 195° |
| 2026-04-29 00:02 | 52.27577 | 4.81172 | 3134 ft | 187 kts | 195° |
| 2026-04-29 00:02 | 52.26327 | 4.80261 | 3393 ft | 210 kts | 197° |
| 2026-04-29 00:02 | 52.25011 | 4.79004 | 3590 ft | 238 kts | 208° |
| 2026-04-29 00:03 | 52.23578 | 4.77369 | 3798 ft | 260 kts | 210° |
| 2026-04-29 00:03 | 52.22038 | 4.75610 | 4226 ft | 276 kts | 210° |
| 2026-04-29 00:03 | 52.20526 | 4.73599 | 4907 ft | 287 kts | 229° |
| 2026-04-29 00:03 | 52.19465 | 4.70887 | 5681 ft | 288 kts | 238° |
| 2026-04-29 00:04 | 52.18439 | 4.68012 | 6456 ft | 290 kts | 238° |
| 2026-04-29 00:04 | 52.17428 | 4.65201 | 7235 ft | 293 kts | 238° |
| 2026-04-29 00:04 | 52.16388 | 4.62330 | 7987 ft | 295 kts | 238° |
| 2026-04-29 00:04 | 52.15332 | 4.59438 | 8765 ft | 299 kts | 238° |
| 2026-04-29 00:05 | 52.14272 | 4.56543 | 9606 ft | 299 kts | 238° |
| 2026-04-29 00:05 | 52.13190 | 4.53603 | 10336 ft | 305 kts | 238° |
| 2026-04-29 00:05 | 52.12072 | 4.50576 | 10766 ft | 323 kts | 238° |
| 2026-04-29 00:05 | 52.10918 | 4.47288 | 10961 ft | 346 kts | 245° |
| 2026-04-29 00:06 | 52.10392 | 4.43408 | 11382 ft | 357 kts | 266° |
| 2026-04-29 00:06 | 52.10207 | 4.39375 | 12156 ft | 360 kts | 266° |
| 2026-04-29 00:06 | 52.10009 | 4.35273 | 12835 ft | 366 kts | 266° |
| 2026-04-29 00:06 | 52.09798 | 4.31126 | 13575 ft | 371 kts | 266° |
| 2026-04-29 00:07 | 52.09576 | 4.26923 | 14339 ft | 374 kts | 265° |
| 2026-04-29 00:07 | 52.09346 | 4.22694 | 15091 ft | 377 kts | 265° |
| 2026-04-29 00:07 | 52.09111 | 4.18434 | 15817 ft | 380 kts | 266° |
| 2026-04-29 00:07 | 52.08869 | 4.14121 | 16502 ft | 385 kts | 266° |
| 2026-04-29 00:08 | 52.08623 | 4.09759 | 17198 ft | 390 kts | 266° |
| 2026-04-29 00:08 | 52.08372 | 4.05351 | 17903 ft | 394 kts | 266° |
| 2026-04-29 00:08 | 52.08116 | 4.00892 | 18597 ft | 398 kts | 266° |
| 2026-04-29 00:08 | 52.07857 | 3.96380 | 19177 ft | 403 kts | 266° |
| 2026-04-29 00:09 | 52.07593 | 3.91810 | 19742 ft | 408 kts | 266° |
| 2026-04-29 00:09 | 52.07322 | 3.87175 | 20226 ft | 416 kts | 266° |
| 2026-04-29 00:09 | 52.06931 | 3.82494 | 20787 ft | 421 kts | 256° |
| 2026-04-29 00:09 | 52.06024 | 3.77958 | 21409 ft | 424 kts | 250° |
| 2026-04-29 00:10 | 52.04971 | 3.73463 | 21992 ft | 429 kts | 249° |
| 2026-04-29 00:10 | 52.03898 | 3.68911 | 22517 ft | 434 kts | 249° |
| 2026-04-29 00:10 | 52.02836 | 3.64280 | 23055 ft | 439 kts | 250° |
| 2026-04-29 00:10 | 52.01792 | 3.59589 | 23606 ft | 444 kts | 250° |
| 2026-04-29 00:11 | 52.00750 | 3.54846 | 24097 ft | 448 kts | 251° |
| 2026-04-29 00:11 | 51.99676 | 3.50089 | 24567 ft | 452 kts | 246° |
| 2026-04-29 00:11 | 51.96151 | 3.41647 | 25571 ft | 455 kts | 231° |
| 2026-04-29 00:12 | 51.94210 | 3.37555 | 25980 ft | 460 kts | 231° |
| 2026-04-29 00:12 | 51.92276 | 3.33410 | 26397 ft | 464 kts | 232° |
| 2026-04-29 00:12 | 51.90373 | 3.29248 | 26862 ft | 467 kts | 232° |
| 2026-04-29 00:12 | 51.88420 | 3.24944 | 27334 ft | 470 kts | 232° |
| 2026-04-29 00:13 | 51.86617 | 3.20509 | 27767 ft | 474 kts | 241° |
| 2026-04-29 00:13 | 51.85289 | 3.15690 | 28182 ft | 478 kts | 251° |
| 2026-04-29 00:13 | 51.84392 | 3.10519 | 28613 ft | 480 kts | 260° |
| 2026-04-29 00:13 | 51.83969 | 3.05159 | 29042 ft | 481 kts | 266° |
| 2026-04-29 00:14 | 51.83668 | 2.99759 | 29455 ft | 484 kts | 266° |
| 2026-04-29 00:14 | 51.83373 | 2.94308 | 29848 ft | 487 kts | 266° |
| 2026-04-29 00:14 | 51.83057 | 2.88839 | 30202 ft | 491 kts | 266° |
| 2026-04-29 00:14 | 51.82711 | 2.83308 | 30447 ft | 497 kts | 265° |
| 2026-04-29 00:15 | 51.82344 | 2.77744 | 30755 ft | 499 kts | 265° |
| 2026-04-29 00:15 | 51.81971 | 2.72187 | 31140 ft | 500 kts | 265° |
| 2026-04-29 00:15 | 51.81593 | 2.66586 | 31562 ft | 499 kts | 264° |
| 2026-04-29 00:15 | 51.81213 | 2.61027 | 32051 ft | 497 kts | 264° |
| 2026-04-29 00:16 | 51.80833 | 2.55507 | 32588 ft | 493 kts | 264° |
| 2026-04-29 00:16 | 51.80451 | 2.50015 | 33126 ft | 489 kts | 264° |
| 2026-04-29 00:16 | 51.80070 | 2.44559 | 33608 ft | 487 kts | 264° |
| 2026-04-29 00:16 | 51.79689 | 2.39140 | 34009 ft | 487 kts | 264° |
| 2026-04-29 00:17 | 51.79305 | 2.33694 | 34278 ft | 489 kts | 263° |
| 2026-04-29 00:17 | 51.78918 | 2.28238 | 34587 ft | 489 kts | 263° |
| 2026-04-29 00:17 | 51.78529 | 2.22792 | 34989 ft | 486 kts | 263° |
| 2026-04-29 00:17 | 51.78168 | 2.17381 | 35371 ft | 484 kts | 264° |
| 2026-04-29 00:18 | 51.77847 | 2.11975 | 35718 ft | 483 kts | 265° |
| 2026-04-29 00:18 | 51.77543 | 2.06584 | 36022 ft | 482 kts | 265° |
| 2026-04-29 00:18 | 51.77237 | 2.01187 | 36296 ft | 482 kts | 265° |
| 2026-04-29 00:19 | 51.76600 | 1.90321 | 36286 ft | 487 kts | 264° |
| 2026-04-29 00:19 | 51.75939 | 1.79488 | 36287 ft | 483 kts | 264° |
| 2026-04-29 00:20 | 51.75272 | 1.68724 | 36288 ft | 481 kts | 264° |
| 2026-04-29 00:20 | 51.74596 | 1.57994 | 36289 ft | 480 kts | 264° |
| 2026-04-29 00:21 | 51.73902 | 1.47298 | 36296 ft | 480 kts | 264° |
| 2026-04-29 00:21 | 51.73197 | 1.36583 | 36288 ft | 481 kts | 264° |
| 2026-04-29 00:22 | 51.72484 | 1.25850 | 36303 ft | 482 kts | 264° |
| 2026-04-29 00:22 | 51.71763 | 1.15099 | 36303 ft | 483 kts | 263° |
| 2026-04-29 00:23 | 51.71030 | 1.04299 | 36302 ft | 485 kts | 264° |
| 2026-04-29 00:23 | 51.70304 | 0.93500 | 36286 ft | 486 kts | 263° |
| 2026-04-29 00:24 | 51.69546 | 0.82657 | 36301 ft | 487 kts | 263° |
| 2026-04-29 00:24 | 51.68780 | 0.71870 | 36294 ft | 488 kts | 263° |
| 2026-04-29 00:25 | 51.67966 | 0.60916 | 35450 ft | 501 kts | 263° |
| 2026-04-29 00:25 | 51.67577 | 0.55352 | 34720 ft | 500 kts | 263° |
| 2026-04-29 00:25 | 51.67184 | 0.49775 | 33813 ft | 502 kts | 263° |
| 2026-04-29 00:25 | 51.66784 | 0.44169 | 32752 ft | 507 kts | 263° |
| 2026-04-29 00:26 | 51.66370 | 0.38537 | 32059 ft | 503 kts | 263° |
| 2026-04-29 00:26 | 51.65949 | 0.32955 | 31379 ft | 500 kts | 263° |
| 2026-04-29 00:26 | 51.65531 | 0.27423 | 30776 ft | 496 kts | 263° |
| 2026-04-29 00:26 | 51.65167 | 0.21917 | 30129 ft | 492 kts | 268° |
| 2026-04-29 00:27 | 51.65294 | 0.16463 | 29459 ft | 485 kts | 279° |
| 2026-04-29 00:27 | 51.65924 | 0.11168 | 28847 ft | 477 kts | 288° |
| 2026-04-29 00:27 | 51.66995 | 0.06186 | 28233 ft | 468 kts | 298° |
| 2026-04-29 00:27 | 51.68351 | 0.01462 | 27680 ft | 461 kts | 299° |
| 2026-04-29 00:28 | 51.69714 | -0.03196 | 27185 ft | 457 kts | 299° |
| 2026-04-29 00:28 | 51.71057 | -0.07818 | 26627 ft | 454 kts | 299° |
| 2026-04-29 00:28 | 51.72374 | -0.12422 | 26067 ft | 450 kts | 298° |
| 2026-04-29 00:28 | 51.73666 | -0.16999 | 25515 ft | 447 kts | 298° |
| 2026-04-29 00:29 | 51.74942 | -0.21556 | 24958 ft | 444 kts | 298° |
| 2026-04-29 00:29 | 51.76188 | -0.26020 | 24395 ft | 442 kts | 298° |
| 2026-04-29 00:29 | 51.77446 | -0.30533 | 23789 ft | 439 kts | 297° |
| 2026-04-29 00:29 | 51.78694 | -0.35016 | 23069 ft | 436 kts | 298° |
| 2026-04-29 00:30 | 51.80168 | -0.39239 | 22501 ft | 425 kts | 310° |
| 2026-04-29 00:30 | 51.81422 | -0.41694 | 22165 ft | 416 kts | 319° |
| 2026-04-29 00:30 | 51.84242 | -0.45626 | 21725 ft | 395 kts | 333° |
| 2026-04-29 00:30 | 51.86569 | -0.47876 | 21392 ft | 386 kts | 336° |
| 2026-04-29 00:31 | 51.88890 | -0.50056 | 21061 ft | 386 kts | 335° |
| 2026-04-29 00:31 | 51.91213 | -0.52278 | 20731 ft | 390 kts | 335° |
| 2026-04-29 00:31 | 51.93555 | -0.54555 | 20389 ft | 392 kts | 334° |
| 2026-04-29 00:31 | 51.95883 | -0.56839 | 20043 ft | 390 kts | 334° |
| 2026-04-29 00:32 | 51.98191 | -0.59101 | 19706 ft | 387 kts | 334° |
| 2026-04-29 00:32 | 52.00485 | -0.61347 | 19372 ft | 384 kts | 334° |
| 2026-04-29 00:32 | 52.02770 | -0.63585 | 19043 ft | 382 kts | 334° |
| 2026-04-29 00:32 | 52.05048 | -0.65818 | 18707 ft | 381 kts | 334° |
| 2026-04-29 00:33 | 52.07306 | -0.68034 | 18344 ft | 379 kts | 333° |
| 2026-04-29 00:33 | 52.09552 | -0.70243 | 17993 ft | 377 kts | 333° |
| 2026-04-29 00:33 | 52.11791 | -0.72446 | 17656 ft | 374 kts | 333° |
| 2026-04-29 00:33 | 52.14009 | -0.74632 | 17327 ft | 372 kts | 333° |
| 2026-04-29 00:34 | 52.16219 | -0.76813 | 17000 ft | 370 kts | 333° |
| 2026-04-29 00:34 | 52.18415 | -0.78981 | 16679 ft | 369 kts | 333° |
| 2026-04-29 00:34 | 52.20604 | -0.81145 | 16362 ft | 367 kts | 333° |
| 2026-04-29 00:34 | 52.22759 | -0.83368 | 16034 ft | 368 kts | 326° |
| 2026-04-29 00:35 | 52.24511 | -0.86436 | 15712 ft | 375 kts | 304° |
| 2026-04-29 00:35 | 52.25550 | -0.90336 | 15396 ft | 377 kts | 285° |
| 2026-04-29 00:35 | 52.25939 | -0.93100 | 15209 ft | 376 kts | 283° |
| 2026-04-29 00:35 | 52.26660 | -0.98682 | 14780 ft | 376 kts | 283° |
| 2026-04-29 00:36 | 52.27014 | -1.01450 | 14562 ft | 375 kts | 283° |
| 2026-04-29 00:36 | 52.27553 | -1.05592 | 14216 ft | 371 kts | 283° |
| 2026-04-29 00:36 | 52.28098 | -1.09693 | 13840 ft | 367 kts | 283° |
| 2026-04-29 00:36 | 52.28643 | -1.13748 | 13516 ft | 362 kts | 283° |
| 2026-04-29 00:37 | 52.29183 | -1.17742 | 13192 ft | 359 kts | 283° |
| 2026-04-29 00:37 | 52.29720 | -1.21703 | 12889 ft | 356 kts | 283° |
| 2026-04-29 00:37 | 52.30252 | -1.25635 | 12571 ft | 353 kts | 283° |
| 2026-04-29 00:37 | 52.30777 | -1.29525 | 12263 ft | 347 kts | 283° |
| 2026-04-29 00:38 | 52.31287 | -1.33322 | 11959 ft | 341 kts | 283° |
| 2026-04-29 00:38 | 52.31790 | -1.37082 | 11669 ft | 333 kts | 283° |
| 2026-04-29 00:38 | 52.32274 | -1.40715 | 11371 ft | 320 kts | 283° |
| 2026-04-29 00:38 | 52.32741 | -1.44221 | 11110 ft | 314 kts | 283° |
| 2026-04-29 00:39 | 52.33206 | -1.47714 | 10849 ft | 314 kts | 283° |
| 2026-04-29 00:39 | 52.33667 | -1.51192 | 10573 ft | 313 kts | 283° |
| 2026-04-29 00:39 | 52.34126 | -1.54658 | 10297 ft | 310 kts | 283° |
| 2026-04-29 00:39 | 52.34578 | -1.58073 | 10000 ft | 306 kts | 283° |
| 2026-04-29 00:40 | 52.35023 | -1.61453 | 9721 ft | 302 kts | 283° |
| 2026-04-29 00:40 | 52.35460 | -1.64787 | 9454 ft | 298 kts | 283° |
| 2026-04-29 00:40 | 52.35717 | -1.68108 | 9290 ft | 291 kts | 270° |
| 2026-04-29 00:40 | 52.35630 | -1.71388 | 9218 ft | 289 kts | 265° |
| 2026-04-29 00:41 | 52.35468 | -1.74689 | 9142 ft | 292 kts | 265° |
| 2026-04-29 00:41 | 52.35302 | -1.78030 | 9041 ft | 297 kts | 265° |
| 2026-04-29 00:41 | 52.35145 | -1.81395 | 8949 ft | 298 kts | 265° |
| 2026-04-29 00:41 | 52.34999 | -1.84768 | 8850 ft | 297 kts | 266° |
| 2026-04-29 00:42 | 52.34862 | -1.88126 | 8737 ft | 296 kts | 266° |
| 2026-04-29 00:42 | 52.34728 | -1.91483 | 8634 ft | 296 kts | 266° |
| 2026-04-29 00:42 | 52.34598 | -1.94833 | 8551 ft | 295 kts | 266° |
| 2026-04-29 00:42 | 52.34470 | -1.98116 | 8465 ft | 290 kts | 266° |
| 2026-04-29 00:43 | 52.34343 | -2.01343 | 8346 ft | 280 kts | 266° |
| 2026-04-29 00:43 | 52.34220 | -2.04470 | 8256 ft | 270 kts | 266° |
| 2026-04-29 00:43 | 52.34197 | -2.07479 | 8158 ft | 260 kts | 282° |
| 2026-04-29 00:43 | 52.34977 | -2.09980 | 8114 ft | 242 kts | 320° |
| 2026-04-29 00:44 | 52.36356 | -2.11464 | 8064 ft | 236 kts | 346° |
| 2026-04-29 00:44 | 52.37949 | -2.11830 | 8002 ft | 231 kts | 12° |
| 2026-04-29 00:44 | 52.39442 | -2.11037 | 7932 ft | 223 kts | 37° |
| 2026-04-29 00:44 | 52.40526 | -2.09327 | 7842 ft | 214 kts | 61° |
| 2026-04-29 00:45 | 52.41087 | -2.07104 | 7780 ft | 210 kts | 79° |
| 2026-04-29 00:45 | 52.41130 | -2.04737 | 7689 ft | 210 kts | 100° |
| 2026-04-29 00:45 | 52.40796 | -2.02425 | 7639 ft | 208 kts | 102° |
| 2026-04-29 00:45 | 52.40456 | -2.00112 | 7570 ft | 208 kts | 102° |
| 2026-04-29 00:46 | 52.40113 | -1.97805 | 7477 ft | 210 kts | 102° |
| 2026-04-29 00:46 | 52.39766 | -1.95475 | 7391 ft | 210 kts | 102° |
| 2026-04-29 00:46 | 52.39424 | -1.93174 | 7366 ft | 207 kts | 102° |
| 2026-04-29 00:46 | 52.38826 | -1.91036 | 7354 ft | 212 kts | 128° |
| 2026-04-29 00:47 | 52.37661 | -1.89491 | 7358 ft | 222 kts | 148° |
| 2026-04-29 00:47 | 52.36160 | -1.88829 | 7355 ft | 231 kts | 173° |
| 2026-04-29 00:47 | 52.34559 | -1.89380 | 7344 ft | 242 kts | 202° |
| 2026-04-29 00:47 | 52.33275 | -1.91171 | 7354 ft | 249 kts | 233° |
| 2026-04-29 00:48 | 52.32700 | -1.93832 | 7356 ft | 253 kts | 266° |
| 2026-04-29 00:48 | 52.32871 | -1.96681 | 7366 ft | 253 kts | 283° |
| 2026-04-29 00:48 | 52.33283 | -1.99478 | 7357 ft | 254 kts | 285° |
| 2026-04-29 00:48 | 52.33718 | -2.02297 | 7358 ft | 255 kts | 285° |
| 2026-04-29 00:49 | 52.34160 | -2.05114 | 7345 ft | 255 kts | 290° |
| 2026-04-29 00:49 | 52.35083 | -2.07503 | 7360 ft | 247 kts | 325° |
| 2026-04-29 00:49 | 52.36548 | -2.08698 | 7360 ft | 235 kts | 355° |
| 2026-04-29 00:49 | 52.38127 | -2.08633 | 7367 ft | 223 kts | 21° |
| 2026-04-29 00:50 | 52.39484 | -2.07478 | 7370 ft | 215 kts | 46° |
| 2026-04-29 00:50 | 52.40352 | -2.05589 | 7374 ft | 210 kts | 68° |
| 2026-04-29 00:50 | 52.40723 | -2.03302 | 7371 ft | 209 kts | 87° |
| 2026-04-29 00:50 | 52.40552 | -2.00945 | 7373 ft | 210 kts | 102° |
| 2026-04-29 00:51 | 52.40215 | -1.98608 | 7362 ft | 212 kts | 102° |
| 2026-04-29 00:51 | 52.39874 | -1.96257 | 7364 ft | 213 kts | 102° |
| 2026-04-29 00:51 | 52.39530 | -1.93901 | 7363 ft | 213 kts | 102° |
| 2026-04-29 00:51 | 52.39074 | -1.91592 | 7345 ft | 215 kts | 119° |
| 2026-04-29 00:52 | 52.38030 | -1.89824 | 7370 ft | 220 kts | 141° |
| 2026-04-29 00:52 | 52.36601 | -1.88855 | 7362 ft | 229 kts | 166° |
| 2026-04-29 00:52 | 52.34993 | -1.89024 | 7350 ft | 238 kts | 193° |
| 2026-04-29 00:52 | 52.33563 | -1.90442 | 7333 ft | 247 kts | 223° |
| 2026-04-29 00:53 | 52.32714 | -1.92891 | 7343 ft | 252 kts | 256° |
| 2026-04-29 00:53 | 52.32674 | -1.95732 | 7364 ft | 252 kts | 281° |
| 2026-04-29 00:53 | 52.33050 | -1.98545 | 7357 ft | 254 kts | 285° |
| 2026-04-29 00:53 | 52.33481 | -2.01342 | 7355 ft | 254 kts | 285° |
| 2026-04-29 00:54 | 52.33909 | -2.04150 | 7349 ft | 255 kts | 285° |
| 2026-04-29 00:54 | 52.34561 | -2.06809 | 7338 ft | 250 kts | 312° |
| 2026-04-29 00:54 | 52.35878 | -2.08507 | 7356 ft | 239 kts | 343° |
| 2026-04-29 00:54 | 52.37460 | -2.08948 | 7363 ft | 227 kts | 11° |
| 2026-04-29 00:55 | 52.38931 | -2.08241 | 7377 ft | 217 kts | 35° |
| 2026-04-29 00:55 | 52.40034 | -2.06624 | 7366 ft | 212 kts | 59° |
| 2026-04-29 00:55 | 52.40629 | -2.04457 | 7364 ft | 209 kts | 78° |
| 2026-04-29 00:55 | 52.40706 | -2.02092 | 7358 ft | 210 kts | 99° |
| 2026-04-29 00:56 | 52.40384 | -1.99755 | 7370 ft | 212 kts | 102° |
| 2026-04-29 00:56 | 52.40043 | -1.97402 | 7366 ft | 213 kts | 102° |
| 2026-04-29 00:56 | 52.39698 | -1.95039 | 7360 ft | 214 kts | 102° |
| 2026-04-29 00:56 | 52.39362 | -1.92669 | 7324 ft | 214 kts | 98° |
| 2026-04-29 00:57 | 52.39591 | -1.90341 | 7122 ft | 215 kts | 59° |
| 2026-04-29 00:57 | 52.40530 | -1.88443 | 6955 ft | 214 kts | 56° |
| 2026-04-29 00:57 | 52.41389 | -1.86468 | 6750 ft | 211 kts | 60° |
| 2026-04-29 00:57 | 52.42166 | -1.84463 | 6526 ft | 207 kts | 62° |
| 2026-04-29 00:58 | 52.42904 | -1.82449 | 6321 ft | 205 kts | 63° |
| 2026-04-29 00:58 | 52.43642 | -1.80386 | 5838 ft | 215 kts | 64° |
| 2026-04-29 00:58 | 52.44001 | -1.78087 | 5541 ft | 210 kts | 98° |
| 2026-04-29 00:58 | 52.43432 | -1.75945 | 5379 ft | 209 kts | 125° |
| 2026-04-29 00:59 | 52.42294 | -1.74443 | 5150 ft | 215 kts | 149° |
| 2026-04-29 00:59 | 52.40844 | -1.73783 | 4920 ft | 219 kts | 163° |
| 2026-04-29 00:59 | 52.39356 | -1.73356 | 4708 ft | 215 kts | 163° |
| 2026-04-29 00:59 | 52.37892 | -1.72922 | 4494 ft | 213 kts | 162° |
| 2026-04-29 01:00 | 52.36438 | -1.72485 | 4262 ft | 211 kts | 162° |
| 2026-04-29 01:00 | 52.35011 | -1.72055 | 4070 ft | 208 kts | 162° |
| 2026-04-29 01:00 | 52.33574 | -1.71618 | 3876 ft | 212 kts | 162° |
| 2026-04-29 01:00 | 52.32158 | -1.71003 | 3653 ft | 207 kts | 144° |
| 2026-04-29 01:01 | 52.31193 | -1.69436 | 3484 ft | 191 kts | 113° |
| 2026-04-29 01:01 | 52.30835 | -1.67405 | 3289 ft | 186 kts | 91° |
| 2026-04-29 01:01 | 52.31060 | -1.65323 | 3130 ft | 190 kts | 68° |
| 2026-04-29 01:01 | 52.31876 | -1.63608 | 2914 ft | 197 kts | 42° |
| 2026-04-29 01:02 | 52.33150 | -1.62712 | 2711 ft | 208 kts | 15° |
| 2026-04-29 01:02 | 52.34616 | -1.62998 | 2495 ft | 221 kts | 346° |
| 2026-04-29 01:02 | 52.35963 | -1.64296 | 2283 ft | 226 kts | 334° |
| 2026-04-29 01:02 | 52.37242 | -1.65725 | 2101 ft | 215 kts | 334° |
| 2026-04-29 01:03 | 52.38421 | -1.67057 | 1971 ft | 197 kts | 335° |
| 2026-04-29 01:03 | 52.39538 | -1.68285 | 1649 ft | 188 kts | 335° |
| 2026-04-29 01:03 | 52.40585 | -1.69453 | 1392 ft | 176 kts | 334° |
| 2026-04-29 01:03 | 52.41538 | -1.70519 | 1113 ft | 157 kts | 334° |
| 2026-04-29 01:04 | 52.42388 | -1.71464 | 912 ft | 139 kts | 331° |
| 2026-04-29 01:04 | 52.43159 | -1.72322 | 720 ft | 134 kts | 332° |
| 2026-04-29 01:04 | 52.43941 | -1.73196 | 528 ft | 134 kts | 330° |
| 2026-04-29 01:04 | 52.44704 | -1.74047 | 366 ft | 133 kts | 329° |
| 2026-04-29 01:05 | 52.45405 | -1.74817 | 323 ft | 106 kts | 328° |
| 2026-04-29 01:05 | 52.45883 | -1.75349 | 321 ft | 63 kts | 325° |
| 2026-04-29 01:05 | 52.46124 | -1.75618 | 317 ft | 11 kts | 342° |
| 2026-04-29 01:05 | 52.46154 | -1.75592 | 317 ft | 11 kts | 44° |
| 2026-04-29 01:06 | 52.46200 | -1.75497 | 316 ft | 10 kts | 55° |
| 2026-04-29 01:06 | 52.46202 | -1.75393 | 316 ft | 10 kts | 121° |
| 2026-04-29 01:06 | 52.46151 | -1.75325 | 318 ft | 9 kts | 147° |
| 2026-04-29 01:06 | 52.46100 | -1.75268 | 317 ft | 9 kts | 143° |
| 2026-04-29 01:07 | 52.46049 | -1.75211 | 319 ft | 9 kts | 146° |
| 2026-04-29 01:07 | 52.46000 | -1.75156 | 320 ft | 8 kts | 145° |
| 2026-04-29 01:07 | 52.45953 | -1.75103 | 320 ft | 8 kts | 146° |
| 2026-04-29 01:07 | 52.45907 | -1.75051 | 321 ft | 8 kts | 145° |
| 2026-04-29 01:08 | 52.45861 | -1.75001 | 321 ft | 8 kts | 147° |
| 2026-04-29 01:08 | 52.45807 | -1.74942 | 321 ft | 12 kts | 146° |
| 2026-04-29 01:08 | 52.45730 | -1.74856 | 323 ft | 14 kts | 145° |
| 2026-04-29 01:08 | 52.45652 | -1.74768 | 323 ft | 13 kts | 145° |
| 2026-04-29 01:09 | 52.45578 | -1.74684 | 322 ft | 13 kts | 145° |
| 2026-04-29 01:09 | 52.45504 | -1.74605 | 323 ft | 12 kts | 148° |
| 2026-04-29 01:09 | 52.45451 | -1.74497 | 323 ft | 12 kts | 120° |
| 2026-04-29 01:09 | 52.45414 | -1.74374 | 327 ft | 12 kts | 116° |
| 2026-04-29 01:10 | 52.45378 | -1.74255 | 324 ft | 12 kts | 116° |
| 2026-04-29 01:10 | 52.45339 | -1.74128 | 328 ft | 12 kts | 117° |
| 2026-04-29 01:10 | 52.45312 | -1.74037 | 325 ft | 8 kts | 109° |
| 2026-04-29 01:10 | 52.45323 | -1.73947 | 328 ft | 8 kts | 53° |
| 2026-04-29 01:11 | 52.45356 | -1.73871 | 325 ft | 8 kts | 55° |
| 2026-04-29 01:11 | 52.45388 | -1.73796 | 327 ft | 8 kts | 56° |
| 2026-04-29 01:11 | 52.45418 | -1.73723 | 326 ft | 8 kts | 56° |
| 2026-04-29 01:11 | 52.45447 | -1.73652 | 329 ft | 7 kts | 54° |
| 2026-04-29 01:12 | 52.45470 | -1.73580 | 325 ft | 7 kts | 90° |
| 2026-04-29 01:12 | 52.45433 | -1.73531 | 328 ft | 7 kts | 147° |
| 2026-04-29 01:12 | 52.45411 | -1.73507 | 328 ft | 0 kts | 146° |
| 2026-04-29 01:12 | 52.45407 | -1.73504 | 328 ft | 1 kts | 146° |
| 2026-04-29 01:13 | 52.45401 | -1.73497 | 329 ft | 1 kts | 146° |
| 2026-04-29 01:13 | 52.45397 | -1.73492 | 326 ft | 1 kts | 146° |
| 2026-04-29 01:13 | 52.45395 | -1.73490 | 326 ft | 0 kts | 146° |